Granite Falls, NC

10:41 PM EDT on August 24, 2016 (GMT -0400)
KNCGRANI2 | | Change Station

Elev 1200 ft 35.81 °N, 81.51 °W | Updated 1 minute ago

Clear
Clear
71.5 °F
Feels Like 71.5 °F
N
0.0
Wind Variable Wind from NE
Gusts 0.0 mph

Today
High -- | Low -- °F
--% Chance of Precip.
Yesterday
High -- | Low -- °F
Precip. -- in
Pressure 30.17 in
Visibility 10.0 miles
Clouds Clear
Dew Point 45.9 °F
Humidity 40%
Rainfall 0.01 in
Snow Depth Not available.
6:52 AM 8:03 PM
Waning Gibbous, 50% visible
METAR KHKY 250153Z 00000KT 10SM CLR 24/22 A3024 RMK AO2 SLP217 T02390217
Pressure 30.17 in
Visibility 10.0 miles
Clouds Clear
Dew Point 45.9 °F
Humidity 40%
Rainfall 0.01 in
Snow Depth Not available.
6:52 AM 8:03 PM
Waning Gibbous, 50% visible
METAR KHKY 250153Z 00000KT 10SM CLR 24/22 A3024 RMK AO2 SLP217 T02390217

10-Day Weather Forecast

Almanac

Astronomy

Aug. 24, 2016 Rise Set
Actual Time
Civil Twilight
Nautical Twilight
Astronomical Twilight
Moon
Length of Visible Light
Length of Day
Tomorrow will be .
, % of the Moon is Illuminated

Today's Extremes

State Highs State Lows

Community

WunderPhotos

Upload Photos

1,934,779 photos uploaded!

WunderBlog® & News

Nearby

Air Quality

  Air Quality AQ Index Pollutant
Not available.

Snow Depth

Station Depth Elevation

Earthquake Activity

City Distance Mag. Time & Date
Minimum magnitude displayed is 2.5.

Coastal Water Temperatures

Place Temperature

Stations

Nearby Weather Stations

Station Location Temp. Windchill Dew Point Humidity Wind Precip. Elev Updated Type
                   

Watches & Warnings

There are currently no watches in effect.